Time;durP1;ratioP1;P1;durP2;ratioP2;P2;SDS_P1;SDS_P2;PMS_P1;PMS_P2;Temp;Humidity;BMP_temperature;BMP_pressure;BME280_temperature;BME280_humidity;BME280_pressure;Samples;Min_cycle;Max_cycle;Signal;HPM_P1;HPM_P2
2022/03/23 00:00:43;;;;;;;9.27;4.90;;;6.20;74.10;;;;;;5072948;28;20559;-77
2022/03/23 00:03:10;;;;;;;7.43;5.50;;;6.00;74.80;;;;;;5072990;28;20398;-76
2022/03/23 00:05:38;;;;;;;8.40;5.80;;;6.00;74.70;;;;;;5072966;28;20527;-75
2022/03/23 00:08:04;;;;;;;8.63;5.50;;;6.00;75.30;;;;;;5072725;28;20409;-75
2022/03/23 00:10:30;;;;;;;6.20;4.87;;;5.70;76.90;;;;;;5072663;28;20459;-75
2022/03/23 00:12:57;;;;;;;16.13;6.00;;;5.40;77.60;;;;;;5071596;28;20179;-75
2022/03/23 00:15:23;;;;;;;8.43;4.83;;;5.40;77.20;;;;;;5071566;28;20409;-75
2022/03/23 00:17:48;;;;;;;10.30;4.73;;;5.70;75.70;;;;;;5071220;28;20776;-75
2022/03/23 00:20:15;;;;;;;7.60;5.00;;;5.80;75.60;;;;;;5072750;28;20254;-75
2022/03/23 00:22:40;;;;;;;13.50;5.70;;;5.60;76.70;;;;;;5072678;28;20694;-75
2022/03/23 00:25:07;;;;;;;9.80;5.10;;;5.50;76.70;;;;;;5072619;28;20500;-75
2022/03/23 00:27:32;;;;;;;11.00;5.37;;;5.50;76.50;;;;;;5071247;28;20183;-75
2022/03/23 00:29:58;;;;;;;8.70;5.17;;;5.60;75.90;;;;;;5072451;28;20498;-75
2022/03/23 00:32:24;;;;;;;8.40;5.67;;;5.70;75.40;;;;;;5072538;28;20620;-75
2022/03/23 00:34:49;;;;;;;8.67;4.70;;;6.10;73.70;;;;;;5072450;28;20175;-75
2022/03/23 00:37:15;;;;;;;7.77;5.43;;;6.30;73.10;;;;;;5072420;28;20166;-75
2022/03/23 00:39:40;;;;;;;9.63;5.23;;;6.30;73.00;;;;;;5071922;28;20543;-75
2022/03/23 00:42:06;;;;;;;9.70;5.03;;;6.40;72.60;;;;;;5070959;28;20214;-75
2022/03/23 00:44:31;;;;;;;7.00;5.10;;;6.50;72.10;;;;;;5071079;28;20179;-76
2022/03/23 00:46:57;;;;;;;7.70;5.57;;;6.50;72.10;;;;;;5070895;28;20715;-75
2022/03/23 00:49:22;;;;;;;9.53;5.77;;;6.40;72.30;;;;;;5072019;28;20171;-75
2022/03/23 00:51:53;;;;;;;6.43;4.60;;;6.40;72.20;;;;;;5072275;28;20224;-75
2022/03/23 00:54:19;;;;;;;8.90;5.50;;;6.50;72.00;;;;;;5071007;28;20258;-75
2022/03/23 00:56:46;;;;;;;6.60;5.10;;;6.40;72.20;;;;;;5072186;28;20401;-75
2022/03/23 00:59:13;;;;;;;7.03;5.13;;;6.20;72.60;;;;;;5071980;28;20881;-75
2022/03/23 05:02:28;;;;;;;14.13;7.30;;;2.80;87.10;;;;;;5100303;22;20492;-77
2022/03/23 05:04:54;;;;;;;14.67;9.00;;;2.70;88.10;;;;;;5072797;28;20409;-76
2022/03/23 05:07:19;;;;;;;40.27;22.40;;;2.40;89.40;;;;;;5072618;28;20179;-77
2022/03/23 05:09:45;;;;;;;15.90;9.30;;;2.30;89.90;;;;;;5072483;28;20570;-76
2022/03/23 05:12:10;;;;;;;12.20;6.40;;;2.20;90.60;;;;;;5055788;28;20580;-76
2022/03/23 05:14:37;;;;;;;7.97;5.70;;;2.00;92.10;;;;;;5059302;28;20232;-76
2022/03/23 05:17:03;;;;;;;9.93;7.27;;;1.80;93.50;;;;;;5044231;28;20171;-76
2022/03/23 05:19:30;;;;;;;11.60;6.50;;;1.60;95.00;;;;;;5063531;28;20449;-76
2022/03/23 06:23:41;;;;;;;10.90;6.40;;;12.80;64.50;;;;;;4993123;28;20487;-77
2022/03/23 06:26:06;;;;;;;10.10;6.33;;;12.90;64.60;;;;;;4993826;28;20428;-78
2022/03/23 06:28:32;;;;;;;9.53;6.33;;;13.20;63.70;;;;;;4993025;28;20952;-77
2022/03/23 06:30:59;;;;;;;9.33;6.47;;;13.90;62.50;;;;;;4994788;28;20229;-78
2022/03/23 06:33:24;;;;;;;9.43;5.33;;;14.00;62.70;;;;;;4997389;28;20511;-79
2022/03/23 06:35:50;;;;;;;9.17;5.90;;;13.90;62.00;;;;;;4996260;28;20452;-78
2022/03/23 06:38:15;;;;;;;7.83;5.70;;;13.80;61.60;;;;;;4995557;28;20729;-79
2022/03/23 06:40:41;;;;;;;13.60;6.40;;;13.50;62.90;;;;;;4996498;28;20193;-78
2022/03/23 06:43:07;;;;;;;11.90;6.10;;;14.00;62.70;;;;;;4997256;28;20208;-79
2022/03/23 06:45:32;;;;;;;10.77;5.57;;;14.30;61.90;;;;;;4996628;28;20228;-78
2022/03/23 06:47:58;;;;;;;7.23;5.70;;;14.30;61.40;;;;;;4999349;28;20662;-77
2022/03/23 06:50:24;;;;;;;11.10;7.23;;;14.00;61.10;;;;;;4997830;28;20611;-78
2022/03/23 06:52:50;;;;;;;9.90;6.00;;;14.10;61.00;;;;;;4994173;28;20170;-78
2022/03/23 06:55:15;;;;;;;11.07;5.80;;;14.10;61.40;;;;;;5010780;28;20180;-78
2022/03/23 06:57:41;;;;;;;12.43;6.90;;;14.70;60.00;;;;;;5016585;28;20169;-78
2022/03/23 07:00:13;;;;;;;9.83;7.17;;;14.80;59.70;;;;;;5001841;28;20201;-79
2022/03/23 07:02:44;;;;;;;12.33;7.30;;;15.40;58.90;;;;;;4983451;28;20177;-78
2022/03/23 07:05:11;;;;;;;8.50;7.10;;;15.90;58.30;;;;;;4996010;28;20408;-78
2022/03/23 07:07:37;;;;;;;9.00;6.50;;;15.50;58.70;;;;;;4993925;28;20452;-78
2022/03/23 07:10:04;;;;;;;10.37;7.03;;;15.10;59.30;;;;;;4995010;28;21002;-78
2022/03/23 07:12:29;;;;;;;10.20;6.20;;;15.10;59.00;;;;;;4995101;28;20198;-78
2022/03/23 07:14:55;;;;;;;8.00;5.33;;;14.70;59.30;;;;;;4992846;28;20417;-78
2022/03/23 07:17:20;;;;;;;8.00;6.80;;;14.90;59.50;;;;;;4995402;28;20189;-78
2022/03/23 07:19:46;;;;;;;9.23;6.23;;;15.00;59.30;;;;;;4994088;28;20195;-79
2022/03/23 07:22:12;;;;;;;12.03;7.50;;;15.90;58.40;;;;;;4993535;28;20206;-78
2022/03/23 07:24:38;;;;;;;9.20;5.90;;;16.20;57.00;;;;;;4994740;28;20181;-78
2022/03/23 07:27:03;;;;;;;9.73;6.47;;;16.50;57.00;;;;;;4998708;28;20552;-78
2022/03/23 07:29:29;;;;;;;10.10;6.70;;;17.10;56.40;;;;;;5013774;28;20665;-78
2022/03/23 07:31:54;;;;;;;7.90;6.27;;;17.60;54.70;;;;;;5010754;28;20209;-78
2022/03/23 07:34:20;;;;;;;10.97;6.83;;;17.30;55.10;;;;;;4993779;28;20222;-78
2022/03/23 07:36:47;;;;;;;11.33;6.50;;;17.80;53.80;;;;;;5008386;28;20523;-79
2022/03/23 07:39:20;;;;;;;13.50;7.50;;;18.10;53.60;;;;;;5011911;28;20646;-78
2022/03/23 07:41:50;;;;;;;9.47;6.83;;;18.50;53.00;;;;;;5014211;28;20451;-79
2022/03/23 07:44:16;;;;;;;9.03;6.80;;;18.60;52.70;;;;;;5003302;28;20434;-78
2022/03/23 07:46:42;;;;;;;11.23;6.87;;;18.10;53.10;;;;;;5004687;28;20431;-78
2022/03/23 07:49:07;;;;;;;11.87;8.30;;;17.90;53.70;;;;;;5005970;28;20431;-79
2022/03/23 07:51:33;;;;;;;8.07;5.70;;;18.20;53.60;;;;;;5006878;28;20213;-79
2022/03/23 07:53:58;;;;;;;9.93;7.13;;;18.40;52.60;;;;;;5012913;28;20185;-79
2022/03/23 07:56:23;;;;;;;7.60;6.80;;;18.10;53.00;;;;;;5010246;28;20197;-79
2022/03/23 07:58:49;;;;;;;7.63;6.83;;;18.10;52.90;;;;;;5014550;28;20605;-79
2022/03/23 08:01:15;;;;;;;9.47;7.00;;;18.30;52.60;;;;;;5004857;28;20286;-78
2022/03/23 08:03:41;;;;;;;8.20;6.43;;;17.30;54.60;;;;;;5020871;28;20185;-79
2022/03/23 08:06:06;;;;;;;18.50;7.07;;;17.90;53.80;;;;;;5010623;28;20590;-79
2022/03/23 08:08:32;;;;;;;18.67;7.80;;;16.90;55.50;;;;;;5003406;28;20431;-78
2022/03/23 08:10:58;;;;;;;12.47;6.60;;;17.30;55.30;;;;;;5024741;28;20299;-78
2022/03/23 08:13:23;;;;;;;12.53;7.40;;;17.20;55.50;;;;;;5027123;28;20172;-78
2022/03/23 08:15:48;;;;;;;9.20;6.60;;;16.50;56.50;;;;;;5019392;28;20168;-78
2022/03/23 08:18:17;;;;;;;11.30;6.23;;;16.30;56.50;;;;;;5028368;28;20293;-78
2022/03/23 08:20:43;;;;;;;10.33;6.60;;;16.50;56.20;;;;;;5029009;28;20200;-77
2022/03/23 08:23:10;;;;;;;10.23;7.27;;;16.20;57.00;;;;;;5019185;28;20435;-77
2022/03/23 08:25:41;;;;;;;10.10;7.20;;;15.40;59.20;;;;;;5017558;28;20180;-77
2022/03/23 08:28:08;;;;;;;9.80;6.90;;;15.10;58.60;;;;;;5013179;28;20874;-77
2022/03/23 08:30:34;;;;;;;11.00;6.50;;;14.60;60.40;;;;;;5010827;28;20463;-78
2022/03/23 08:32:59;;;;;;;10.87;6.67;;;14.20;61.90;;;;;;5012819;28;20958;-77
2022/03/23 08:35:25;;;;;;;15.90;7.00;;;14.10;62.30;;;;;;5019705;28;20172;-78
2022/03/23 08:37:51;;;;;;;9.80;6.70;;;14.70;62.40;;;;;;5026216;28;20183;-78
2022/03/23 08:40:17;;;;;;;14.47;7.33;;;14.60;61.00;;;;;;4996532;28;20191;-78
2022/03/23 08:42:42;;;;;;;9.50;6.97;;;16.00;60.30;;;;;;5018113;28;20426;-78
2022/03/23 08:45:09;;;;;;;11.20;6.97;;;17.40;58.10;;;;;;5014067;28;20176;-78
2022/03/23 08:47:35;;;;;;;16.43;7.77;;;19.00;54.80;;;;;;5029583;28;20655;-80
2022/03/23 08:50:01;;;;;;;9.23;7.30;;;19.70;53.50;;;;;;5023235;28;20957;-76
2022/03/23 08:52:29;;;;;;;11.13;6.90;;;20.20;52.90;;;;;;5010518;28;20439;-76
2022/03/23 08:54:54;;;;;;;11.53;7.17;;;20.10;52.90;;;;;;5009847;28;20183;-75
2022/03/23 08:57:22;;;;;;;9.10;7.27;;;20.00;54.70;;;;;;5017809;28;20746;-77
2022/03/23 08:59:48;;;;;;;10.30;6.97;;;19.90;55.00;;;;;;5011866;28;20172;-77
2022/03/23 09:02:13;;;;;;;10.33;7.33;;;20.80;53.40;;;;;;5031018;28;20445;-76
2022/03/23 09:04:39;;;;;;;15.63;7.40;;;20.70;52.40;;;;;;5013574;28;20179;-79
2022/03/23 09:07:04;;;;;;;8.73;7.20;;;20.40;54.40;;;;;;5023750;28;20207;-78
2022/03/23 09:09:30;;;;;;;12.23;7.93;;;21.10;53.30;;;;;;5031360;28;20557;-77
2022/03/23 09:11:56;;;;;;;10.03;8.23;;;21.20;51.70;;;;;;5026195;28;20227;-76
2022/03/23 09:14:22;;;;;;;12.60;8.60;;;21.20;51.70;;;;;;5013837;28;20441;-76
2022/03/23 09:16:47;;;;;;;17.00;9.70;;;20.30;52.40;;;;;;5028886;28;20180;-77
2022/03/23 09:19:19;;;;;;;11.60;8.70;;;20.60;52.60;;;;;;5011764;28;20259;-76
2022/03/23 09:21:48;;;;;;;8.97;7.30;;;21.20;51.60;;;;;;5030577;28;20208;-77
2022/03/23 09:24:15;;;;;;;9.63;7.30;;;21.50;50.40;;;;;;5031881;28;22292;-77
2022/03/23 09:26:41;;;;;;;8.90;7.33;;;21.90;49.50;;;;;;5031793;28;20473;-77
2022/03/23 09:29:07;;;;;;;8.83;7.40;;;22.30;48.40;;;;;;5031938;28;20966;-76
2022/03/23 09:31:34;;;;;;;14.00;6.87;;;22.50;48.40;;;;;;5030194;28;20478;-75
2022/03/23 09:34:02;;;;;;;10.70;7.50;;;23.20;47.40;;;;;;5031321;28;20431;-78
2022/03/23 09:39:14;;;;;;;9.83;6.90;;;22.90;45.50;;;;;;5034583;28;20822;-76
2022/03/23 09:41:43;;;;;;;13.83;7.37;;;22.30;43.50;;;;;;5031007;28;20455;-76
2022/03/23 09:44:09;;;;;;;10.10;7.10;;;22.50;44.20;;;;;;5013713;28;20180;-77
2022/03/23 09:46:35;;;;;;;13.33;6.50;;;23.00;45.20;;;;;;5031288;28;20792;-76
2022/03/23 09:49:00;;;;;;;13.10;7.47;;;23.00;46.20;;;;;;5031036;28;20188;-75
2022/03/23 09:51:28;;;;;;;7.43;6.57;;;21.80;43.60;;;;;;5013411;28;20758;-76
2022/03/23 09:53:53;;;;;;;11.17;7.53;;;21.60;47.30;;;;;;5031122;28;20180;-75
2022/03/23 09:56:19;;;;;;;11.83;7.60;;;22.20;45.90;;;;;;5031424;28;20492;-77
2022/03/23 09:58:44;;;;;;;8.70;7.30;;;22.80;47.80;;;;;;5030952;28;20196;-76
2022/03/23 10:01:30;;;;;;;8.97;6.57;;;22.90;45.80;;;;;;5031262;28;20279;-77
2022/03/23 10:04:06;;;;;;;6.87;6.17;;;22.10;44.80;;;;;;5031450;28;20208;-75
2022/03/23 10:06:59;;;;;;;7.40;6.30;;;21.80;46.70;;;;;;5031592;28;20414;-76
2022/03/23 10:10:01;;;;;;;11.83;7.50;;;21.50;46.40;;;;;;5031233;28;20399;-75
2022/03/23 10:12:51;;;;;;;8.07;6.77;;;21.60;47.60;;;;;;5030958;28;21020;-77
2022/03/23 10:15:45;;;;;;;13.57;7.73;;;21.70;47.60;;;;;;5035034;28;20489;-75
2022/03/23 10:18:32;;;;;;;12.53;6.80;;;21.60;47.70;;;;;;5034533;28;20399;-76
2022/03/23 10:20:57;;;;;;;10.20;6.93;;;21.60;46.70;;;;;;5015255;28;20470;-75
2022/03/23 10:23:23;;;;;;;7.90;7.03;;;21.60;46.60;;;;;;5014989;28;20493;-77
2022/03/23 10:25:50;;;;;;;11.37;7.97;;;21.60;50.70;;;;;;5015179;28;20875;-75
2022/03/23 10:28:17;;;;;;;7.67;6.57;;;21.10;47.80;;;;;;5014140;28;20651;-75
2022/03/23 10:30:44;;;;;;;11.03;7.60;;;20.80;47.70;;;;;;5034621;28;20832;-75
2022/03/23 10:33:24;;;;;;;10.50;6.80;;;21.00;55.90;;;;;;5034626;28;20938;-76
2022/03/23 10:35:51;;;;;;;8.50;7.53;;;21.40;50.50;;;;;;5016642;28;20424;-75
2022/03/23 10:38:19;;;;;;;7.87;7.07;;;21.10;49.60;;;;;;5034651;28;20866;-75
2022/03/23 10:40:47;;;;;;;8.80;7.10;;;21.00;49.30;;;;;;5034833;28;20484;-75
2022/03/23 10:43:15;;;;;;;7.50;6.80;;;20.80;49.60;;;;;;5035116;28;20411;-75
2022/03/23 10:45:41;;;;;;;8.50;6.50;;;20.50;48.60;;;;;;5017090;28;20419;-75
2022/03/23 10:48:13;;;;;;;12.23;7.00;;;20.50;49.80;;;;;;5034166;28;20756;-75
2022/03/23 10:50:56;;;;;;;8.30;7.00;;;19.90;48.40;;;;;;5034005;28;20203;-75
2022/03/23 10:53:37;;;;;;;8.27;7.47;;;20.10;46.80;;;;;;5016654;28;20484;-76
2022/03/23 10:56:03;;;;;;;14.60;7.30;;;20.00;48.60;;;;;;5034604;28;20402;-76
2022/03/23 10:58:30;;;;;;;10.53;7.30;;;20.30;49.30;;;;;;5033945;28;20427;-76
2022/03/23 11:00:58;;;;;;;7.90;7.00;;;19.90;46.80;;;;;;5033831;28;20938;-77
2022/03/23 11:03:38;;;;;;;7.77;6.07;;;20.00;48.60;;;;;;5025092;28;20414;-75
2022/03/23 11:06:06;;;;;;;8.07;7.20;;;20.00;47.50;;;;;;5017419;28;20412;-76
2022/03/23 11:08:31;;;;;;;7.80;6.97;;;20.80;55.40;;;;;;5022296;28;20774;-76
2022/03/23 11:16:39;;;;;;;10.07;7.00;;;20.30;51.50;;;;;;4962957;28;20427;-75
2022/03/23 11:19:11;;;;;;;8.27;6.70;;;20.20;46.80;;;;;;5016205;28;20423;-75
2022/03/23 11:22:06;;;;;;;11.77;6.47;;;20.30;50.30;;;;;;5033348;28;20457;-75
2022/03/23 11:24:47;;;;;;;7.20;6.10;;;21.20;52.80;;;;;;5033764;28;20411;-76
2022/03/23 11:27:18;;;;;;;21.70;7.60;;;21.00;45.50;;;;;;5033444;28;20442;-75
2022/03/23 11:29:48;;;;;;;8.33;6.60;;;20.60;45.80;;;;;;5033728;28;20393;-76
2022/03/23 11:32:16;;;;;;;12.77;6.57;;;20.60;48.80;;;;;;5031920;28;20454;-76
2022/03/23 11:34:48;;;;;;;8.27;6.97;;;20.70;46.90;;;;;;5015529;28;20431;-76
2022/03/23 11:37:15;;;;;;;9.60;7.30;;;20.50;49.10;;;;;;5033659;28;20419;-76
2022/03/23 11:39:41;;;;;;;7.10;6.40;;;20.70;47.90;;;;;;5034625;28;20433;-76
2022/03/23 11:42:07;;;;;;;12.93;6.40;;;19.10;45.70;;;;;;5035348;28;20450;-75
2022/03/23 11:44:36;;;;;;;8.33;7.53;;;19.00;46.80;;;;;;5033401;28;20251;-75
2022/03/23 11:47:08;;;;;;;9.03;7.10;;;19.60;51.50;;;;;;5033437;28;20975;-75
2022/03/23 11:49:50;;;;;;;7.60;6.13;;;20.50;50.40;;;;;;5032979;28;20502;-75
2022/03/23 11:52:34;;;;;;;7.27;6.57;;;20.50;46.20;;;;;;5033198;28;21189;-75
2022/03/23 11:55:40;;;;;;;10.30;5.50;;;20.20;48.60;;;;;;5032684;28;20427;-75
2022/03/23 11:58:22;;;;;;;7.07;6.00;;;20.40;48.10;;;;;;5032909;28;20418;-75
2022/03/23 12:00:51;;;;;;;8.30;6.07;;;20.10;46.10;;;;;;5033285;28;20439;-75
2022/03/23 12:03:46;;;;;;;9.00;6.20;;;20.60;46.30;;;;;;5033415;28;20758;-76
2022/03/23 12:06:13;;;;;;;9.50;6.43;;;21.00;51.30;;;;;;5033079;28;20499;-74
2022/03/23 12:08:50;;;;;;;8.97;6.50;;;21.00;51.10;;;;;;5032497;28;20427;-75
2022/03/23 12:11:43;;;;;;;10.13;6.47;;;21.10;49.40;;;;;;5012464;28;20463;-76
2022/03/23 12:14:26;;;;;;;6.60;5.93;;;20.70;51.30;;;;;;5013379;28;20495;-77
2022/03/23 12:16:51;;;;;;;10.30;6.20;;;20.70;51.70;;;;;;5013229;28;20488;-76
2022/03/23 12:19:18;;;;;;;10.37;5.63;;;20.80;51.20;;;;;;5013951;28;20400;-77
2022/03/23 12:21:58;;;;;;;6.23;5.57;;;20.80;49.20;;;;;;5032776;28;20188;-75
2022/03/23 12:24:41;;;;;;;7.33;6.63;;;20.90;51.20;;;;;;5032728;28;20880;-75
2022/03/23 12:27:28;;;;;;;7.03;6.30;;;20.90;52.90;;;;;;5032596;28;20418;-77
2022/03/23 12:29:57;;;;;;;8.20;6.10;;;21.10;52.30;;;;;;5032402;28;20426;-75
2022/03/23 12:32:34;;;;;;;10.27;6.30;;;20.40;45.60;;;;;;5032734;28;20506;-75
2022/03/23 12:35:00;;;;;;;9.43;6.40;;;20.80;50.70;;;;;;5032569;28;20438;-75
2022/03/23 12:37:39;;;;;;;6.90;6.00;;;21.40;50.50;;;;;;5014295;28;20498;-75
2022/03/23 12:40:10;;;;;;;9.93;7.40;;;21.70;46.80;;;;;;5032643;28;20605;-75
2022/03/23 12:42:43;;;;;;;10.07;7.90;;;21.30;47.60;;;;;;5032820;28;20430;-75
2022/03/23 12:45:10;;;;;;;11.17;6.50;;;21.00;48.20;;;;;;5033130;28;20421;-75
2022/03/23 12:47:43;;;;;;;9.93;6.70;;;20.50;47.60;;;;;;5033733;28;20545;-77
2022/03/23 12:58:37;;;;;;;10.17;6.57;;;20.60;48.30;;;;;;5034146;28;20461;-75
2022/03/23 13:01:15;;;;;;;22.20;7.57;;;20.50;51.40;;;;;;5033883;28;20431;-75
2022/03/23 13:03:43;;;;;;;13.33;7.27;;;20.20;48.60;;;;;;5034301;28;20247;-75
2022/03/23 13:06:11;;;;;;;10.67;7.80;;;20.10;49.70;;;;;;5034546;28;20895;-75
2022/03/23 13:08:44;;;;;;;15.27;7.87;;;19.90;49.60;;;;;;5033958;28;21113;-75
2022/03/23 13:11:10;;;;;;;8.50;7.60;;;20.00;48.60;;;;;;5035425;28;20461;-75
2022/03/23 13:13:37;;;;;;;8.70;7.73;;;20.00;50.10;;;;;;5035297;28;20510;-75
2022/03/23 13:16:07;;;;;;;9.70;8.00;;;20.00;50.20;;;;;;5036732;28;20203;-75
2022/03/23 13:18:36;;;;;;;11.00;7.43;;;20.00;48.60;;;;;;5034132;28;20941;-75
2022/03/23 13:21:02;;;;;;;12.93;7.97;;;19.80;48.80;;;;;;5017933;28;20442;-75
2022/03/23 13:23:28;;;;;;;9.77;6.70;;;20.30;51.30;;;;;;5034791;28;20415;-75
2022/03/23 13:26:13;;;;;;;14.50;7.10;;;20.50;49.10;;;;;;5018348;28;20783;-75
2022/03/23 13:28:42;;;;;;;12.73;8.53;;;20.00;48.80;;;;;;5020182;28;20184;-75
2022/03/23 13:31:09;;;;;;;8.47;7.60;;;20.10;49.70;;;;;;5026788;28;20475;-75
2022/03/23 13:33:39;;;;;;;14.37;8.00;;;20.50;51.00;;;;;;5004123;28;20428;-75
2022/03/23 13:36:06;;;;;;;10.63;9.00;;;20.30;50.20;;;;;;5010708;28;20423;-76
2022/03/23 13:38:36;;;;;;;11.77;9.50;;;19.80;51.50;;;;;;5019965;28;20418;-76
2022/03/23 13:43:51;;;;;;;12.40;9.90;;;;;;;;;;5029772;28;20425;-77
2022/03/23 13:46:17;;;;;;;13.77;11.50;;;20.20;54.20;;;;;;5029088;28;20453;-77
2022/03/23 13:48:42;;;;;;;15.50;10.70;;;20.20;54.80;;;;;;5033861;28;20407;-76
2022/03/23 13:51:08;;;;;;;12.03;10.20;;;19.80;55.00;;;;;;5035231;28;20266;-78
2022/03/23 13:53:34;;;;;;;12.03;9.97;;;19.90;53.40;;;;;;5034832;28;20831;-77
2022/03/23 13:56:00;;;;;;;13.13;10.37;;;19.90;55.20;;;;;;5034123;28;20249;-75
2022/03/23 13:58:29;;;;;;;12.10;10.33;;;19.80;54.50;;;;;;5034193;28;21007;-75
2022/03/23 14:00:56;;;;;;;19.03;12.33;;;19.60;56.10;;;;;;5027331;28;20299;-76
2022/03/23 14:03:32;;;;;;;14.53;11.17;;;19.60;57.60;;;;;;5015378;28;20502;-75
2022/03/23 14:06:06;;;;;;;12.73;11.40;;;19.60;56.80;;;;;;4998056;28;20427;-75
2022/03/23 14:08:36;;;;;;;15.50;12.83;;;19.50;55.10;;;;;;5031265;28;21009;-75
2022/03/23 14:11:03;;;;;;;13.70;10.27;;;19.30;56.20;;;;;;5033409;28;20549;-74
2022/03/23 14:13:29;;;;;;;15.00;11.17;;;19.50;56.60;;;;;;5035096;28;20480;-74
2022/03/23 14:15:57;;;;;;;17.97;12.13;;;19.30;55.50;;;;;;5035071;28;20427;-74
2022/03/23 14:18:25;;;;;;;16.23;12.17;;;19.30;56.60;;;;;;5016541;28;20180;-75
2022/03/23 14:20:52;;;;;;;13.70;11.00;;;19.40;57.40;;;;;;5034756;28;20454;-75
2022/03/23 14:23:21;;;;;;;13.67;11.60;;;19.50;58.30;;;;;;5034962;28;20415;-75
2022/03/23 14:25:49;;;;;;;12.87;10.50;;;19.50;55.60;;;;;;5016393;28;20461;-75
2022/03/23 14:28:22;;;;;;;14.60;11.03;;;19.30;57.80;;;;;;5034763;28;20411;-75
2022/03/23 14:30:55;;;;;;;12.97;10.80;;;19.40;56.10;;;;;;5034715;28;20561;-75
2022/03/23 14:33:21;;;;;;;16.30;11.90;;;19.20;54.80;;;;;;5034830;28;20414;-75
2022/03/23 14:35:48;;;;;;;15.30;11.37;;;19.00;57.90;;;;;;5016805;28;20419;-75
2022/03/23 14:38:22;;;;;;;15.10;11.60;;;18.90;58.80;;;;;;4998613;28;20797;-75
2022/03/23 14:41:00;;;;;;;19.63;12.00;;;18.90;58.10;;;;;;5014606;28;20967;-75
2022/03/23 14:43:40;;;;;;;19.00;11.00;;;19.00;57.20;;;;;;5027206;28;20465;-75
2022/03/23 14:46:23;;;;;;;14.10;11.90;;;19.00;58.20;;;;;;5034278;28;20469;-75
2022/03/23 14:49:08;;;;;;;19.40;12.40;;;18.90;59.30;;;;;;5034061;28;20418;-75
2022/03/23 14:51:35;;;;;;;19.80;13.07;;;18.80;59.40;;;;;;5031777;28;20471;-75
2022/03/23 14:54:02;;;;;;;16.50;12.30;;;18.40;59.20;;;;;;5032550;28;20418;-74
2022/03/23 14:56:28;;;;;;;14.53;13.00;;;18.30;59.50;;;;;;5031987;28;20446;-74
2022/03/23 14:58:58;;;;;;;13.63;11.50;;;18.40;59.50;;;;;;5033014;28;20884;-75
2022/03/23 15:01:25;;;;;;;19.03;13.07;;;18.30;60.00;;;;;;5033978;28;20203;-75
2022/03/23 15:03:51;;;;;;;16.77;12.10;;;18.40;59.30;;;;;;5034231;28;20492;-75
2022/03/23 15:14:41;;;;;;;12.97;11.50;;;17.80;60.40;;;;;;5034059;28;20407;-75
2022/03/23 15:17:06;;;;;;;29.83;11.53;;;17.70;58.30;;;;;;5033715;28;20426;-75
2022/03/23 15:19:32;;;;;;;23.90;12.63;;;17.80;60.10;;;;;;5033916;28;20407;-75
2022/03/23 15:21:57;;;;;;;18.60;12.07;;;17.80;57.80;;;;;;5033703;28;20614;-75
2022/03/23 15:24:23;;;;;;;15.57;11.93;;;17.80;59.60;;;;;;5033976;28;20190;-75
2022/03/23 15:26:52;;;;;;;21.00;11.50;;;17.70;57.30;;;;;;5033544;28;20222;-75
2022/03/23 15:29:18;;;;;;;13.50;11.20;;;17.80;58.10;;;;;;5033325;28;20187;-75
2022/03/23 15:31:43;;;;;;;12.27;10.90;;;17.50;56.50;;;;;;5033547;28;20542;-75
2022/03/23 15:34:10;;;;;;;15.83;11.80;;;17.50;59.10;;;;;;5033627;28;20537;-75
2022/03/23 15:36:35;;;;;;;12.30;10.40;;;17.40;60.60;;;;;;5033593;28;20314;-75
2022/03/23 15:39:01;;;;;;;16.67;11.13;;;17.20;61.10;;;;;;5033259;28;20836;-75
2022/03/23 15:41:27;;;;;;;13.90;11.27;;;17.10;60.50;;;;;;5033481;28;20195;-75
2022/03/23 15:43:53;;;;;;;16.97;12.07;;;16.90;61.60;;;;;;5033604;28;20168;-75
2022/03/23 15:46:24;;;;;;;13.97;12.47;;;16.80;62.50;;;;;;5033489;28;20298;-75
2022/03/23 15:48:56;;;;;;;15.23;11.80;;;16.70;62.30;;;;;;5033298;28;20418;-75
2022/03/23 15:51:22;;;;;;;24.73;13.10;;;16.70;62.70;;;;;;5033103;28;20472;-75
2022/03/23 15:53:47;;;;;;;14.67;11.70;;;16.60;61.90;;;;;;5033461;28;20415;-75
2022/03/23 15:56:14;;;;;;;17.10;11.60;;;16.60;62.70;;;;;;5033071;28;20431;-75
2022/03/23 15:58:39;;;;;;;19.67;12.00;;;16.40;64.40;;;;;;5032977;28;20260;-75
2022/03/23 16:01:08;;;;;;;20.63;13.17;;;16.30;63.60;;;;;;5032877;28;20470;-75
2022/03/23 16:03:33;;;;;;;17.63;12.80;;;16.10;64.40;;;;;;5032895;28;20188;-74
2022/03/23 16:05:59;;;;;;;19.20;13.50;;;16.00;65.10;;;;;;5033385;28;20843;-76
2022/03/23 16:08:25;;;;;;;13.47;11.70;;;16.00;65.90;;;;;;5033642;28;20263;-76
2022/03/23 16:10:52;;;;;;;17.47;12.40;;;15.80;64.60;;;;;;5032112;28;20208;-77
2022/03/23 16:13:18;;;;;;;16.30;13.43;;;15.60;66.50;;;;;;5015896;28;20172;-76
2022/03/23 16:15:43;;;;;;;19.63;13.00;;;15.40;66.10;;;;;;5032973;28;20501;-76
2022/03/23 16:18:09;;;;;;;15.90;13.10;;;15.30;66.30;;;;;;5031152;28;20222;-76
2022/03/23 16:20:34;;;;;;;15.77;13.23;;;15.00;67.80;;;;;;5035023;28;20207;-76
2022/03/23 16:23:02;;;;;;;20.63;15.47;;;14.80;68.60;;;;;;5029840;28;20709;-76
2022/03/23 16:25:28;;;;;;;19.40;14.30;;;14.70;68.20;;;;;;5032613;28;20177;-77
2022/03/23 16:27:53;;;;;;;16.63;13.63;;;14.70;68.60;;;;;;5030389;28;20427;-77
2022/03/23 16:30:21;;;;;;;21.93;14.83;;;14.20;69.90;;;;;;5028641;28;20462;-76
2022/03/23 16:32:47;;;;;;;25.13;13.70;;;14.20;70.20;;;;;;5032346;28;20179;-77
2022/03/23 16:35:14;;;;;;;17.77;14.43;;;13.90;70.10;;;;;;5032001;28;20411;-76
2022/03/23 16:37:43;;;;;;;20.80;14.23;;;13.50;71.50;;;;;;5026925;28;20420;-76
2022/03/23 16:40:15;;;;;;;20.03;14.87;;;13.20;70.90;;;;;;5012372;28;20415;-82
2022/03/23 16:42:41;;;;;;;19.37;13.40;;;13.20;71.30;;;;;;5013343;28;20839;-77
2022/03/23 16:45:07;;;;;;;18.60;14.20;;;13.00;73.40;;;;;;5032424;28;20506;-77
2022/03/23 16:47:32;;;;;;;22.47;14.47;;;12.80;73.30;;;;;;5014135;28;20648;-78
2022/03/23 16:49:58;;;;;;;20.90;15.47;;;12.70;72.90;;;;;;5004524;28;20188;-78
2022/03/23 16:52:24;;;;;;;25.27;17.20;;;12.40;73.50;;;;;;4997808;28;20207;-75
2022/03/23 16:54:50;;;;;;;21.80;15.60;;;12.30;73.90;;;;;;5020277;28;20177;-77
2022/03/23 16:57:17;;;;;;;17.23;14.40;;;12.20;75.70;;;;;;5005862;28;20191;-79
2022/03/23 16:59:44;;;;;;;24.33;14.87;;;12.00;76.10;;;;;;5012262;28;20424;-77
2022/03/23 17:02:10;;;;;;;19.33;14.77;;;11.80;76.50;;;;;;5013471;28;20442;-76
2022/03/23 17:12:48;;;;;;;21.13;15.30;;;11.00;78.70;;;;;;5030418;28;20456;-77
2022/03/23 17:15:14;;;;;;;24.07;16.93;;;10.80;78.90;;;;;;5008661;28;20502;-77
2022/03/23 17:17:43;;;;;;;20.53;15.70;;;10.60;79.50;;;;;;5031093;28;20617;-77
2022/03/23 17:20:10;;;;;;;23.20;16.73;;;10.50;79.30;;;;;;5009637;28;20474;-80
2022/03/23 17:22:37;;;;;;;21.10;15.77;;;10.30;79.60;;;;;;5022918;28;20950;-78
2022/03/23 17:25:05;;;;;;;24.93;16.10;;;10.10;80.40;;;;;;5018802;28;20419;-77
2022/03/23 17:27:32;;;;;;;24.60;16.00;;;10.00;81.00;;;;;;5019847;28;20430;-78
2022/03/23 17:30:01;;;;;;;21.03;15.23;;;9.80;81.80;;;;;;5032764;28;20418;-78
2022/03/23 17:32:28;;;;;;;26.80;17.03;;;9.60;81.90;;;;;;5000396;28;20474;-75
2022/03/23 17:34:55;;;;;;;25.90;19.17;;;9.60;82.30;;;;;;5031746;28;20433;-75
2022/03/23 17:37:20;;;;;;;25.03;18.53;;;9.50;82.60;;;;;;5033315;28;20498;-76
2022/03/23 17:39:47;;;;;;;27.43;17.17;;;9.40;83.10;;;;;;5033028;28;20447;-77
2022/03/23 17:42:13;;;;;;;19.00;15.53;;;9.20;83.80;;;;;;5032749;28;20200;-77
2022/03/23 17:44:41;;;;;;;21.40;16.73;;;9.00;84.90;;;;;;5033161;28;20414;-78
2022/03/23 17:47:08;;;;;;;23.97;17.33;;;8.80;85.60;;;;;;5015643;28;20454;-79
2022/03/23 17:49:34;;;;;;;22.63;16.40;;;8.70;85.50;;;;;;5033512;28;20498;-77
2022/03/23 17:52:03;;;;;;;23.60;15.43;;;8.60;85.70;;;;;;5033176;28;20554;-78
2022/03/23 17:54:29;;;;;;;26.40;16.50;;;8.40;86.10;;;;;;5032764;28;20172;-78
2022/03/23 17:56:57;;;;;;;19.37;15.00;;;8.30;86.50;;;;;;5048022;28;20443;-82
2022/03/23 17:59:25;;;;;;;23.07;17.10;;;8.20;86.40;;;;;;5036564;28;20434;-82
2022/03/23 18:01:52;;;;;;;25.93;15.27;;;8.10;86.20;;;;;;5039671;28;20439;-80
2022/03/23 18:04:18;;;;;;;24.23;15.10;;;8.00;87.00;;;;;;5033135;28;20513;-78
2022/03/23 18:06:44;;;;;;;26.00;15.97;;;7.90;87.50;;;;;;5045621;28;20911;-77
2022/03/23 18:09:10;;;;;;;21.00;16.53;;;7.80;87.60;;;;;;5030963;28;20422;-79
2022/03/23 18:11:37;;;;;;;19.57;15.53;;;7.70;88.40;;;;;;5031080;28;20833;-79
2022/03/23 18:14:06;;;;;;;24.03;15.87;;;7.60;89.10;;;;;;5013599;28;20172;-78
2022/03/23 18:16:43;;;;;;;22.47;16.43;;;7.60;89.30;;;;;;5013601;28;20518;-80
2022/03/23 18:19:10;;;;;;;21.97;17.40;;;7.60;89.50;;;;;;5030457;28;20481;-79
2022/03/23 18:21:36;;;;;;;38.17;25.57;;;7.50;89.60;;;;;;5031108;28;20446;-78
2022/03/23 18:24:04;;;;;;;34.93;26.90;;;7.40;89.50;;;;;;5013492;28;20419;-77